Time;durP1;ratioP1;P1;durP2;ratioP2;P2;SDS_P1;SDS_P2;PMS_P1;PMS_P2;Temp;Humidity;BMP_temperature;BMP_pressure;BME280_temperature;BME280_humidity;BME280_pressure;Samples;Min_cycle;Max_cycle;Signal;HPM_P1;HPM_P2
2023/12/18 00:01:36;;;;;;;;;;;;;;;3.90;100.00;102839.22;5015281;28;19921;-80
2023/12/18 00:04:03;;;;;;;;;;;;;;;3.92;100.00;102830.19;5006888;28;19921;-80
2023/12/18 00:06:28;;;;;;;;;;;;;;;3.91;100.00;102839.16;5013315;28;19930;-80
2023/12/18 00:08:54;;;;;;;;;;;;;;;3.73;100.00;102830.56;5010746;28;20274;-80
2023/12/18 00:11:19;;;;;;;;;;;;;;;3.75;100.00;102833.97;4997993;28;19922;-80
2023/12/18 00:13:44;;;;;;;;;;;;;;;3.81;100.00;102814.06;5012789;28;20216;-80
2023/12/18 00:16:09;;;;;;;;;;;;;;;3.84;100.00;102805.03;5015105;28;19929;-80
2023/12/18 00:18:35;;;;;;;;;;;;;;;3.90;100.00;102804.59;5002424;28;19936;-80
2023/12/18 00:21:00;;;;;;;;;;;;;;;3.90;100.00;102801.94;5016255;28;19949;-80
2023/12/18 00:23:25;;;;;;;;;;;;;;;3.97;100.00;102795.22;5014018;28;19930;-81
2023/12/18 00:25:50;;;;;;;;;;;;;;;3.95;100.00;102813.13;5007995;28;19925;-80
2023/12/18 00:28:16;;;;;;;;;;;;;;;3.99;100.00;102813.78;5011473;28;19922;-80
2023/12/18 00:30:41;;;;;;;;;;;;;;;3.81;100.00;102805.22;5014067;28;20333;-78
2023/12/18 00:33:06;;;;;;;;;;;;;;;3.96;100.00;102801.53;5007878;28;20389;-80
2023/12/18 00:35:31;;;;;;;;;;;;;;;4.07;100.00;102800.78;5229549;23;19912;-80
2023/12/18 00:43:20;;;;;;;;;;;;;;;4.07;100.00;102790.97;5417920;23;20020;-80
2023/12/18 00:45:58;;;;;;;;;;;;;;;4.01;100.00;102788.75;5009938;28;19965;-79
2023/12/18 00:48:32;;;;;;;;;;;;;;;3.96;100.00;102792.69;5009634;28;19935;-78
2023/12/18 00:51:19;;;;;;;;;;;;;;;3.99;100.00;102777.34;5013099;28;20404;-81
2023/12/18 00:53:44;;;;;;;;;;;;;;;4.06;100.00;102789.25;5010731;28;20376;-80
2023/12/18 00:56:24;;;;;;;;;;;;;;;4.06;100.00;102775.94;5004009;28;19928;-80
2023/12/18 00:58:50;;;;;;;;;;;;;;;4.02;100.00;102785.13;5009534;28;20013;-80
2023/12/18 01:01:21;;;;;;;;;;;;;;;3.89;100.00;102777.09;4997982;28;20353;-81
2023/12/18 01:03:49;;;;;;;;;;;;;;;3.95;100.00;102775.84;5006730;28;19922;-81
2023/12/18 01:06:17;;;;;;;;;;;;;;;3.89;100.00;102778.91;5001338;28;19929;-80
2023/12/18 01:08:42;;;;;;;;;;;;;;;3.87;100.00;102784.34;5008426;28;19917;-80
2023/12/18 01:11:19;;;;;;;;;;;;;;;3.89;100.00;102781.56;5007326;28;19925;-80
2023/12/18 01:13:47;;;;;;;;;;;;;;;3.88;100.00;102770.06;5002368;28;20444;-80
2023/12/18 01:16:37;;;;;;;;;;;;;;;3.76;100.00;102782.41;5000333;28;20361;-78
2023/12/18 01:22:20;;;;;;;;;;;;;;;3.87;100.00;102778.19;5012093;28;19928;-78
2023/12/18 01:24:54;;;;;;;;;;;;;;;3.82;100.00;102781.13;4978504;28;19922;-79
2023/12/18 01:27:19;;;;;;;;;;;;;;;3.90;100.00;102772.63;5004847;28;19971;-79
2023/12/18 01:29:51;;;;;;;;;;;;;;;3.89;100.00;102779.78;5011271;28;20421;-78
2023/12/18 01:32:16;;;;;;;;;;;;;;;3.92;100.00;102770.72;5007796;28;19925;-79
2023/12/18 01:34:41;;;;;;;;;;;;;;;3.96;100.00;102782.88;5012241;28;19979;-79
2023/12/18 01:37:19;;;;;;;;;;;;;;;3.96;100.00;102763.38;5011314;28;19925;-77
2023/12/18 01:42:39;;;;;;;;;;;;;;;3.88;100.00;102775.41;5126099;23;19961;-76
2023/12/18 01:45:16;;;;;;;;;;;;;;;3.92;100.00;102770.72;5014474;28;19984;-76
2023/12/18 01:47:41;;;;;;;;;;;;;;;3.93;100.00;102769.75;5011236;28;19952;-77
2023/12/18 01:50:06;;;;;;;;;;;;;;;3.90;100.00;102775.28;5129864;23;19961;-77
2023/12/18 01:52:32;;;;;;;;;;;;;;;3.91;100.00;102771.66;4983238;28;19925;-76
2023/12/18 01:54:57;;;;;;;;;;;;;;;3.88;100.00;102772.72;5007050;28;19926;-76
2023/12/18 01:57:23;;;;;;;;;;;;;;;3.93;100.00;102778.63;4987413;28;19968;-77
2023/12/18 01:59:48;;;;;;;;;;;;;;;3.88;100.00;102779.88;4993368;28;20004;-77
2023/12/18 02:02:13;;;;;;;;;;;;;;;3.93;100.00;102777.75;5021022;23;20428;-77
2023/12/18 02:04:40;;;;;;;;;;;;;;;3.87;100.00;102786.19;4991905;28;20042;-76
2023/12/18 02:07:05;;;;;;;;;;;;;;;3.83;100.00;102777.50;4987139;28;19922;-76
2023/12/18 02:09:31;;;;;;;;;;;;;;;3.92;100.00;102781.38;5011993;28;19934;-77
2023/12/18 02:12:00;;;;;;;;;;;;;;;3.95;100.00;102781.16;4986563;28;19926;-76
2023/12/18 02:14:25;;;;;;;;;;;;;;;3.90;100.00;102780.63;5003229;28;19929;-76
2023/12/18 02:16:50;;;;;;;;;;;;;;;3.90;100.00;102770.81;5007655;28;19917;-76
2023/12/18 02:19:24;;;;;;;;;;;;;;;4.00;100.00;102775.50;5011539;28;19933;-77
2023/12/18 02:21:49;;;;;;;;;;;;;;;3.97;100.00;102767.75;5009715;28;19918;-76
2023/12/18 02:24:14;;;;;;;;;;;;;;;3.99;100.00;102756.00;5010565;28;19928;-77
2023/12/18 02:26:40;;;;;;;;;;;;;;;3.93;100.00;102767.09;5007965;28;20052;-76
2023/12/18 02:29:05;;;;;;;;;;;;;;;3.89;100.00;102770.91;4991864;28;19924;-77
2023/12/18 02:31:30;;;;;;;;;;;;;;;3.94;100.00;102780.31;5001379;28;19921;-77
2023/12/18 02:33:56;;;;;;;;;;;;;;;3.96;100.00;102772.22;4998416;28;20029;-77
2023/12/18 02:36:21;;;;;;;;;;;;;;;3.96;100.00;102769.53;5000952;28;19918;-77
2023/12/18 02:38:47;;;;;;;;;;;;;;;3.97;100.00;102768.59;4998865;28;20400;-77
2023/12/18 02:41:12;;;;;;;;;;;;;;;3.96;100.00;102766.88;5009505;28;20413;-76
2023/12/18 02:43:37;;;;;;;;;;;;;;;3.96;100.00;102772.22;5013327;28;19922;-77
2023/12/18 02:46:09;;;;;;;;;;;;;;;3.97;100.00;102768.59;5007673;28;19921;-77
2023/12/18 02:48:34;;;;;;;;;;;;;;;3.96;100.00;102761.53;5001622;28;19921;-78
2023/12/18 02:50:59;;;;;;;;;;;;;;;3.88;100.00;102754.09;5006518;28;19928;-77
2023/12/18 02:53:24;;;;;;;;;;;;;;;3.94;100.00;102766.13;5013549;28;19946;-77
2023/12/18 02:55:49;;;;;;;;;;;;;;;3.97;100.00;102773.06;5013207;28;20328;-77
2023/12/18 02:58:15;;;;;;;;;;;;;;;3.96;100.00;102766.03;5023673;28;19953;-77
2023/12/18 03:00:40;;;;;;;;;;;;;;;3.89;100.00;102761.13;5018954;28;19917;-77
2023/12/18 03:03:05;;;;;;;;;;;;;;;3.86;100.00;102755.16;5027518;28;19957;-76
2023/12/18 03:05:31;;;;;;;;;;;;;;;3.97;100.00;102741.94;5027728;28;19917;-77
2023/12/18 03:07:56;;;;;;;;;;;;;;;3.94;100.00;102744.81;5015997;28;20373;-77
2023/12/18 03:10:22;;;;;;;;;;;;;;;3.99;100.00;102741.81;5015726;28;20422;-77
2023/12/18 03:12:47;;;;;;;;;;;;;;;4.00;100.00;102733.72;5011627;28;19957;-77
2023/12/18 03:15:15;;;;;;;;;;;;;;;3.99;100.00;102734.69;5012960;28;19926;-77
2023/12/18 03:17:41;;;;;;;;;;;;;;;3.98;100.00;102732.97;5017561;28;20401;-78
2023/12/18 03:20:06;;;;;;;;;;;;;;;4.00;100.00;102736.41;5016066;28;19965;-77
2023/12/18 03:22:31;;;;;;;;;;;;;;;4.00;100.00;102725.75;5003749;28;20003;-77
2023/12/18 03:24:57;;;;;;;;;;;;;;;4.01;100.00;102722.13;5004405;28;20551;-77
2023/12/18 03:27:22;;;;;;;;;;;;;;;3.98;100.00;102717.00;5024349;28;20234;-79
2023/12/18 03:29:47;;;;;;;;;;;;;;;4.02;100.00;102718.50;5028187;28;19941;-77
2023/12/18 03:32:12;;;;;;;;;;;;;;;3.94;100.00;102720.81;5013685;28;19948;-78
2023/12/18 03:34:38;;;;;;;;;;;;;;;3.95;100.00;102714.53;5011914;28;19925;-77
2023/12/18 03:37:06;;;;;;;;;;;;;;;3.94;100.00;102715.50;5003712;28;19936;-78
2023/12/18 03:39:31;;;;;;;;;;;;;;;3.98;100.00;102711.66;5004091;28;19928;-77
2023/12/18 03:41:59;;;;;;;;;;;;;;;4.02;100.00;102723.81;5001977;28;20405;-77
2023/12/18 03:44:24;;;;;;;;;;;;;;;4.02;100.00;102723.81;5009685;28;19921;-77
2023/12/18 03:46:49;;;;;;;;;;;;;;;3.96;100.00;102718.91;5014834;28;19921;-77
2023/12/18 03:49:27;;;;;;;;;;;;;;;4.03;100.00;102720.19;5092268;23;19933;-77
2023/12/18 03:51:58;;;;;;;;;;;;;;;4.03;100.00;102730.88;5006865;28;19921;-79
2023/12/18 03:54:32;;;;;;;;;;;;;;;3.99;100.00;102739.16;5013275;28;19921;-78
2023/12/18 03:56:57;;;;;;;;;;;;;;;3.99;100.00;102733.81;5017322;28;19957;-78
2023/12/18 03:59:35;;;;;;;;;;;;;;;3.99;100.00;102729.38;5021451;28;20118;-78
2023/12/18 04:02:00;;;;;;;;;;;;;;;4.05;100.00;102738.75;5015558;28;19925;-77
2023/12/18 04:04:25;;;;;;;;;;;;;;;4.03;100.00;102730.88;5010143;28;19917;-79
2023/12/18 04:06:51;;;;;;;;;;;;;;;3.97;100.00;102731.28;5006097;28;20088;-79
2023/12/18 04:09:16;;;;;;;;;;;;;;;3.93;100.00;102735.97;5010467;28;19918;-78
2023/12/18 04:11:41;;;;;;;;;;;;;;;4.03;100.00;102735.31;5003940;28;19929;-79
2023/12/18 04:14:09;;;;;;;;;;;;;;;4.04;100.00;102742.34;5011597;28;19988;-79
2023/12/18 04:16:35;;;;;;;;;;;;;;;3.98;100.00;102735.66;5014813;28;19921;-79
2023/12/18 04:19:00;;;;;;;;;;;;;;;3.99;100.00;102724.03;5014953;28;19929;-78
2023/12/18 04:21:25;;;;;;;;;;;;;;;4.03;100.00;102736.19;5021335;28;20596;-78
2023/12/18 04:23:50;;;;;;;;;;;;;;;3.89;100.00;102731.81;5019329;28;19925;-78
2023/12/18 04:26:16;;;;;;;;;;;;;;;3.95;100.00;102735.84;5010994;28;19989;-78
2023/12/18 04:28:41;;;;;;;;;;;;;;;3.99;100.00;102734.69;5025817;28;19912;-78
2023/12/18 04:31:06;;;;;;;;;;;;;;;3.99;100.00;102736.50;5023138;28;19918;-78
2023/12/18 04:33:31;;;;;;;;;;;;;;;4.02;100.00;102731.81;5016222;28;19928;-77
2023/12/18 04:35:58;;;;;;;;;;;;;;;4.02;100.00;102722.94;5011784;28;19918;-78
2023/12/18 04:38:24;;;;;;;;;;;;;;;4.00;100.00;102720.41;5011167;28;20349;-76
2023/12/18 04:40:49;;;;;;;;;;;;;;;4.00;100.00;102725.75;5003828;28;20008;-78
2023/12/18 04:43:14;;;;;;;;;;;;;;;3.90;100.00;102727.31;4985948;28;19967;-78
2023/12/18 04:45:39;;;;;;;;;;;;;;;3.89;100.00;102718.50;5013181;28;20245;-76
2023/12/18 04:48:05;;;;;;;;;;;;;;;3.97;100.00;102712.63;5001580;28;19999;-76
2023/12/18 04:50:30;;;;;;;;;;;;;;;3.91;100.00;102705.03;5015005;28;20428;-76
2023/12/18 04:53:10;;;;;;;;;;;;;;;3.94;100.00;102702.19;5007984;28;19928;-87
2023/12/18 04:55:36;;;;;;;;;;;;;;;3.94;100.00;102702.19;4998487;28;20366;-79
2023/12/18 05:00:49;;;;;;;;;;;;;;;3.92;100.00;102696.09;4965308;28;19926;-84
2023/12/18 05:03:49;;;;;;;;;;;;;;;3.90;100.00;102703.34;5006505;28;19921;-79
2023/12/18 05:06:32;;;;;;;;;;;;;;;3.93;100.00;102703.13;5003981;28;19917;-78
2023/12/18 05:08:58;;;;;;;;;;;;;;;3.93;100.00;102703.13;4999105;28;19948;-78
2023/12/18 05:11:24;;;;;;;;;;;;;;;3.91;100.00;102705.03;5011042;28;19987;-78
2023/12/18 05:13:49;;;;;;;;;;;;;;;3.86;100.00;102705.38;5005144;28;19925;-78
2023/12/18 05:16:15;;;;;;;;;;;;;;;3.91;100.00;102716.56;5006678;28;19925;-79
2023/12/18 05:18:40;;;;;;;;;;;;;;;3.84;100.00;102717.94;5011811;28;19928;-78
2023/12/18 05:24:36;;;;;;;;;;;;;;;3.94;100.00;102715.50;5009936;28;20300;-80
2023/12/18 05:27:22;;;;;;;;;;;;;;;3.87;100.00;102716.91;5012166;28;19927;-79
2023/12/18 05:29:54;;;;;;;;;;;;;;;3.90;100.00;102714.00;5011948;28;19948;-80
2023/12/18 05:32:25;;;;;;;;;;;;;;;3.88;100.00;102707.94;5012190;28;19918;-80
2023/12/18 05:34:50;;;;;;;;;;;;;;;3.78;100.00;102713.91;5009342;28;20397;-80
2023/12/18 05:37:24;;;;;;;;;;;;;;;3.88;100.00;102708.78;5007005;28;20008;-80
2023/12/18 05:39:50;;;;;;;;;;;;;;;3.85;100.00;102705.50;5000563;28;19921;-80
2023/12/18 05:42:37;;;;;;;;;;;;;;;3.84;100.00;102709.97;5008664;28;20289;-80
2023/12/18 05:48:04;;;;;;;;;;;;;;;3.78;100.00;102705.06;5007277;28;19960;-80
2023/12/18 05:50:30;;;;;;;;;;;;;;;3.78;100.00;102692.59;5240213;23;19953;-80
2023/12/18 05:52:55;;;;;;;;;;;;;;;3.71;100.00;102711.78;5010149;28;19953;-79
2023/12/18 05:55:21;;;;;;;;;;;;;;;3.78;100.00;102705.91;5012709;28;19924;-80
2023/12/18 05:57:46;;;;;;;;;;;;;;;3.75;100.00;102694.63;5007484;23;19934;-80
2023/12/18 06:00:39;;;;;;;;;;;;;;;3.75;100.00;102683.97;5009746;28;19922;-80
2023/12/18 06:03:22;;;;;;;;;;;;;;;3.75;100.00;102690.13;5008880;28;19925;-79
2023/12/18 06:05:48;;;;;;;;;;;;;;;3.63;100.00;102688.31;5141469;23;19928;-79
2023/12/18 06:08:22;;;;;;;;;;;;;;;3.62;100.00;102692.78;4996901;28;19926;-80
2023/12/18 06:11:03;;;;;;;;;;;;;;;3.68;100.00;102688.88;4992899;28;19922;-80
2023/12/18 06:13:29;;;;;;;;;;;;;;;3.71;100.00;102683.31;5004702;28;19929;-80
2023/12/18 06:15:54;;;;;;;;;;;;;;;3.74;100.00;102698.25;4983801;28;20291;-80
2023/12/18 06:18:25;;;;;;;;;;;;;;;3.71;100.00;102688.63;4992471;28;19981;-80
2023/12/18 06:20:50;;;;;;;;;;;;;;;3.74;100.00;102692.91;5136698;23;19996;-80
2023/12/18 06:23:16;;;;;;;;;;;;;;;3.66;100.00;102696.13;5011448;28;20022;-79
2023/12/18 06:25:41;;;;;;;;;;;;;;;3.75;100.00;102699.94;4993806;28;20388;-80
2023/12/18 06:28:06;;;;;;;;;;;;;;;3.75;100.00;102705.28;5010788;28;19926;-80
2023/12/18 06:30:31;;;;;;;;;;;;;;;3.73;100.00;102702.69;5005398;28;19991;-80
2023/12/18 06:32:57;;;;;;;;;;;;;;;3.75;100.00;102699.94;5006376;28;19921;-79
2023/12/18 06:35:22;;;;;;;;;;;;;;;3.75;100.00;102694.63;5008347;28;19921;-79
2023/12/18 06:37:47;;;;;;;;;;;;;;;3.76;100.00;102697.16;5012202;28;19924;-79
2023/12/18 06:40:12;;;;;;;;;;;;;;;3.78;100.00;102694.41;5013455;28;19921;-79
2023/12/18 06:45:13;;;;;;;;;;;;;;;3.76;100.00;102688.34;5297551;23;19932;-79
2023/12/18 06:47:38;;;;;;;;;;;;;;;3.73;100.00;102686.72;5014797;28;20197;-79
2023/12/18 06:50:06;;;;;;;;;;;;;;;3.67;100.00;102689.81;5013566;28;19960;-78
2023/12/18 06:52:31;;;;;;;;;;;;;;;3.70;100.00;102694.09;5008793;28;19925;-82
2023/12/18 06:54:57;;;;;;;;;;;;;;;3.74;100.00;102688.44;5007820;28;19968;-82
2023/12/18 06:57:25;;;;;;;;;;;;;;;3.74;100.00;102699.09;5005708;28;19925;-83
2023/12/18 06:59:50;;;;;;;;;;;;;;;3.78;100.00;102697.06;5017708;28;19941;-83
2023/12/18 07:02:15;;;;;;;;;;;;;;;3.78;100.00;102689.94;5012698;28;20321;-83
2023/12/18 07:04:40;;;;;;;;;;;;;;;3.79;100.00;102701.44;5012257;28;20344;-82
2023/12/18 07:07:08;;;;;;;;;;;;;;;3.81;100.00;102682.69;5005938;28;20385;-81
2023/12/18 07:09:33;;;;;;;;;;;;;;;3.81;100.00;102698.66;5011578;28;19922;-81
2023/12/18 07:12:02;;;;;;;;;;;;;;;3.82;100.00;102689.72;5002657;28;20644;-81
2023/12/18 07:14:30;;;;;;;;;;;;;;;3.84;100.00;102690.47;5000949;28;20401;-83
2023/12/18 07:16:55;;;;;;;;;;;;;;;3.78;100.00;102691.75;4997091;28;19921;-85
2023/12/18 07:19:23;;;;;;;;;;;;;;;3.83;100.00;102696.75;5013209;28;19917;-84
2023/12/18 07:21:48;;;;;;;;;;;;;;;3.83;100.00;102702.09;5004886;28;19921;-82
2023/12/18 07:24:14;;;;;;;;;;;;;;;3.87;100.00;102687.59;5012894;28;19941;-83
2023/12/18 07:26:39;;;;;;;;;;;;;;;3.81;100.00;102696.00;5015261;28;19921;-84
2023/12/18 07:29:04;;;;;;;;;;;;;;;3.85;100.00;102697.50;5013453;28;19991;-84
2023/12/18 07:31:29;;;;;;;;;;;;;;;3.85;100.00;102689.50;5017138;28;19925;-80
2023/12/18 07:33:54;;;;;;;;;;;;;;;3.83;100.00;102702.09;5013815;28;20017;-81
2023/12/18 07:36:20;;;;;;;;;;;;;;;3.80;100.00;102705.78;5009761;28;19961;-82
2023/12/18 07:38:45;;;;;;;;;;;;;;;3.82;100.00;102695.03;5005333;28;19957;-82
2023/12/18 07:41:11;;;;;;;;;;;;;;;3.85;100.00;102701.00;5011538;28;19926;-81
2023/12/18 07:43:36;;;;;;;;;;;;;;;3.90;100.00;102704.22;5014687;28;20441;-82
2023/12/18 07:46:01;;;;;;;;;;;;;;;3.89;100.00;102712.28;5011632;28;20270;-81
2023/12/18 07:48:26;;;;;;;;;;;;;;;3.89;100.00;102704.31;5005920;28;20277;-81
2023/12/18 07:50:52;;;;;;;;;;;;;;;3.92;100.00;102704.09;5015242;28;19922;-82
2023/12/18 07:53:18;;;;;;;;;;;;;;;3.87;100.00;102700.91;5017155;28;19922;-82
2023/12/18 07:55:43;;;;;;;;;;;;;;;3.85;100.00;102700.16;5019100;28;19917;-82
2023/12/18 08:00:43;;;;;;;;;;;;;;;3.98;100.00;102685.00;5727483;23;19925;-82
2023/12/18 08:03:12;;;;;;;;;;;;;;;3.93;100.00;102692.47;5015451;28;20384;-82
2023/12/18 08:05:37;;;;;;;;;;;;;;;3.85;100.00;102694.84;5014421;28;19917;-82
2023/12/18 08:08:02;;;;;;;;;;;;;;;3.92;100.00;102701.44;5015091;28;19924;-82
2023/12/18 08:10:28;;;;;;;;;;;;;;;3.99;100.00;102702.72;5014235;28;19917;-82
2023/12/18 08:12:53;;;;;;;;;;;;;;;4.03;100.00;102693.56;5015797;28;19918;-82
2023/12/18 08:15:18;;;;;;;;;;;;;;;4.07;100.00;102688.84;5004208;28;20362;-82
2023/12/18 08:17:43;;;;;;;;;;;;;;;4.11;100.00;102677.00;5014962;28;19921;-82
2023/12/18 08:20:09;;;;;;;;;;;;;;;4.06;100.00;102687.13;5015517;28;20000;-82
2023/12/18 08:22:34;;;;;;;;;;;;;;;4.08;100.00;102686.06;5011280;28;20044;-82
2023/12/18 08:25:00;;;;;;;;;;;;;;;4.14;100.00;102684.81;5015423;28;19918;-82
2023/12/18 08:27:26;;;;;;;;;;;;;;;4.15;100.00;102683.81;5008141;28;19932;-83
2023/12/18 08:29:57;;;;;;;;;;;;;;;4.20;100.00;102684.34;5014625;28;19926;-82
2023/12/18 08:32:22;;;;;;;;;;;;;;;4.19;100.00;102681.78;5014752;28;19918;-83
2023/12/18 08:34:48;;;;;;;;;;;;;;;4.19;100.00;102681.78;5013887;28;19968;-82
2023/12/18 08:37:13;;;;;;;;;;;;;;;4.25;100.00;102679.53;5015153;28;19921;-82
2023/12/18 08:39:38;;;;;;;;;;;;;;;4.23;100.00;102670.78;5013829;28;19918;-82
2023/12/18 08:42:03;;;;;;;;;;;;;;;4.26;100.00;102677.72;5014959;28;19921;-82
2023/12/18 08:44:29;;;;;;;;;;;;;;;4.29;100.00;102672.16;5007944;28;19936;-82
2023/12/18 08:46:54;;;;;;;;;;;;;;;4.32;100.00;102676.44;5004274;28;19928;-82
2023/12/18 08:49:19;;;;;;;;;;;;;;;4.32;100.00;102676.44;5014069;28;19917;-82
2023/12/18 08:51:44;;;;;;;;;;;;;;;4.33;100.00;102667.47;5013830;28;20332;-82
2023/12/18 08:54:09;;;;;;;;;;;;;;;4.35;100.00;102668.19;4999111;28;20319;-82
2023/12/18 08:56:35;;;;;;;;;;;;;;;4.33;100.00;102676.31;5014498;28;20329;-82
2023/12/18 08:59:00;;;;;;;;;;;;;;;4.34;100.00;102670.03;5011815;28;20341;-82
2023/12/18 09:01:25;;;;;;;;;;;;;;;4.38;100.00;102674.19;5013843;28;19928;-82
2023/12/18 09:03:51;;;;;;;;;;;;;;;4.35;100.00;102674.41;5014252;28;19921;-82
2023/12/18 09:06:16;;;;;;;;;;;;;;;4.43;100.00;102659.66;5003432;28;19917;-83
2023/12/18 09:08:41;;;;;;;;;;;;;;;4.43;100.00;102670.31;5006000;28;19928;-83
2023/12/18 09:11:06;;;;;;;;;;;;;;;4.41;100.00;102665.09;5014370;28;19917;-83
2023/12/18 09:13:33;;;;;;;;;;;;;;;4.35;100.00;102666.41;5012149;28;19953;-82
2023/12/18 09:15:58;;;;;;;;;;;;;;;4.39;100.00;102662.56;5013931;28;19917;-83
2023/12/18 09:18:24;;;;;;;;;;;;;;;4.43;100.00;102667.63;5013265;28;19980;-83
2023/12/18 09:20:49;;;;;;;;;;;;;;;4.45;100.00;102666.59;5012537;28;20320;-83
2023/12/18 09:23:15;;;;;;;;;;;;;;;4.37;100.00;102666.28;5012722;28;19926;-83
2023/12/18 09:25:40;;;;;;;;;;;;;;;4.39;100.00;102670.56;5014793;28;19924;-83
2023/12/18 09:28:05;;;;;;;;;;;;;;;4.49;100.00;102668.06;4999710;28;19917;-83
2023/12/18 09:30:30;;;;;;;;;;;;;;;4.60;100.00;102651.25;5013398;28;19918;-83
2023/12/18 09:32:55;;;;;;;;;;;;;;;4.55;100.00;102672.09;5001426;28;19918;-83
2023/12/18 09:35:21;;;;;;;;;;;;;;;4.61;100.00;102666.31;5013025;28;19922;-83
2023/12/18 09:37:46;;;;;;;;;;;;;;;4.57;100.00;102672.84;5012618;28;19925;-83
2023/12/18 09:40:11;;;;;;;;;;;;;;;4.65;100.00;102670.47;5014793;28;19969;-83
2023/12/18 09:42:37;;;;;;;;;;;;;;;4.67;100.00;102670.34;5012650;28;19960;-82
2023/12/18 09:45:04;;;;;;;;;;;;;;;4.64;100.00;102666.09;4996018;28;19922;-83
2023/12/18 09:47:29;;;;;;;;;;;;;;;4.67;100.00;102676.53;5011858;28;20395;-83
2023/12/18 09:49:56;;;;;;;;;;;;;;;4.54;100.00;102681.91;5006740;28;20020;-83
2023/12/18 09:52:21;;;;;;;;;;;;;;;4.62;100.00;102678.69;5012864;28;20237;-82
2023/12/18 09:54:47;;;;;;;;;;;;;;;4.60;100.00;102669.09;4996086;28;19917;-82
2023/12/18 09:57:13;;;;;;;;;;;;;;;4.57;100.00;102656.84;4999222;28;20362;-82
2023/12/18 09:59:38;;;;;;;;;;;;;;;4.54;100.00;102654.41;5013288;28;19917;-82
2023/12/18 10:02:03;;;;;;;;;;;;;;;4.53;100.00;102660.69;4995154;28;19975;-82
2023/12/18 10:04:28;;;;;;;;;;;;;;;4.54;100.00;102659.72;5012257;28;20004;-82
2023/12/18 10:06:54;;;;;;;;;;;;;;;4.52;100.00;102651.81;5012203;28;20301;-82
2023/12/18 10:09:22;;;;;;;;;;;;;;;4.58;100.00;102649.69;5015554;28;19918;-82
2023/12/18 10:11:48;;;;;;;;;;;;;;;4.58;100.00;102647.88;5013321;28;19917;-82
2023/12/18 10:14:13;;;;;;;;;;;;;;;4.57;100.00;102648.84;5013772;28;19925;-82
2023/12/18 10:16:39;;;;;;;;;;;;;;;4.55;100.00;102656.94;5012481;28;20281;-82
2023/12/18 10:19:04;;;;;;;;;;;;;;;4.52;100.00;102648.31;5012355;28;20020;-82
2023/12/18 10:21:30;;;;;;;;;;;;;;;4.57;100.00;102654.19;5012063;28;20365;-82
2023/12/18 10:23:57;;;;;;;;;;;;;;;4.59;100.00;102644.22;5012822;28;20363;-82
2023/12/18 10:26:22;;;;;;;;;;;;;;;4.61;100.00;102641.47;5014656;28;19917;-82
2023/12/18 10:28:51;;;;;;;;;;;;;;;4.66;100.00;102636.66;5013814;28;19928;-83
2023/12/18 10:31:16;;;;;;;;;;;;;;;4.73;100.00;102634.38;5012706;28;19996;-83
2023/12/18 10:33:42;;;;;;;;;;;;;;;4.74;100.00;102633.41;5012995;28;20370;-83
2023/12/18 10:36:08;;;;;;;;;;;;;;;4.76;100.00;102624.31;4994961;28;19932;-82
2023/12/18 10:38:33;;;;;;;;;;;;;;;4.81;100.00;102642.63;5013054;28;20432;-82
2023/12/18 10:40:59;;;;;;;;;;;;;;;4.86;100.00;102640.47;4998328;28;19921;-82
2023/12/18 10:43:24;;;;;;;;;;;;;;;4.86;100.00;102632.47;5004006;28;19929;-82
2023/12/18 10:45:52;;;;;;;;;;;;;;;4.91;100.00;102630.31;4995822;28;19924;-82
2023/12/18 10:48:18;;;;;;;;;;;;;;;4.93;100.00;102617.72;5016001;28;19925;-83
2023/12/18 10:50:43;;;;;;;;;;;;;;;4.98;100.00;102614.69;5001098;28;19922;-82
2023/12/18 10:53:08;;;;;;;;;;;;;;;4.97;100.00;102613.00;5006485;28;19964;-82
2023/12/18 10:55:35;;;;;;;;;;;;;;;4.97;100.00;102607.66;5015110;28;20028;-83
2023/12/18 10:58:00;;;;;;;;;;;;;;;4.97;100.00;102618.31;5012514;28;20266;-83
2023/12/18 11:00:25;;;;;;;;;;;;;;;5.05;100.00;102604.41;4993375;28;20397;-82
2023/12/18 11:02:51;;;;;;;;;;;;;;;5.06;100.00;102611.44;5011221;28;19991;-82
2023/12/18 11:05:16;;;;;;;;;;;;;;;4.98;100.00;102617.38;5004833;28;19922;-82
2023/12/18 11:07:41;;;;;;;;;;;;;;;4.99;100.00;102605.72;4992834;28;19921;-81
2023/12/18 11:10:07;;;;;;;;;;;;;;;4.97;100.00;102607.66;4994572;28;19925;-80
2023/12/18 11:12:32;;;;;;;;;;;;;;;4.89;100.00;102597.56;5011235;28;20277;-80
2023/12/18 11:15:18;;;;;;;;;;;;;;;4.93;100.00;102600.84;4993729;28;19920;-80
2023/12/18 11:17:55;;;;;;;;;;;;;;;4.97;100.00;102589.81;5016758;28;19952;-80
2023/12/18 11:20:33;;;;;;;;;;;;;;;4.99;100.00;102595.03;5006787;28;19918;-80
2023/12/18 11:22:58;;;;;;;;;;;;;;;5.00;100.00;102581.56;5023948;28;19918;-80
2023/12/18 11:25:30;;;;;;;;;;;;;;;5.12;100.00;102581.59;5006200;28;19965;-81
2023/12/18 11:27:55;;;;;;;;;;;;;;;5.14;100.00;102583.19;5008367;28;19921;-81
2023/12/18 11:30:32;;;;;;;;;;;;;;;5.19;100.00;102580.16;4991212;28;20227;-82
2023/12/18 11:32:58;;;;;;;;;;;;;;;5.22;100.00;102569.25;5010786;28;19922;-82
2023/12/18 11:35:30;;;;;;;;;;;;;;;5.21;100.00;102575.56;5015648;28;20274;-80
2023/12/18 11:38:02;;;;;;;;;;;;;;;5.27;100.00;102572.41;5015905;28;19921;-82
2023/12/18 11:40:36;;;;;;;;;;;;;;;5.27;100.00;102575.09;5008269;28;19925;-82
2023/12/18 11:46:04;;;;;;;;;;;;;;;5.31;100.00;102584.53;5014113;23;20052;-82
2023/12/18 11:48:30;;;;;;;;;;;;;;;5.35;100.00;102570.94;5010607;28;19921;-82
2023/12/18 11:50:55;;;;;;;;;;;;;;;5.19;100.00;102574.81;5011691;28;19936;-83
2023/12/18 11:53:23;;;;;;;;;;;;;;;5.26;100.00;102573.38;5009277;28;19922;-83
2023/12/18 11:55:50;;;;;;;;;;;;;;;5.37;100.00;102567.22;5014848;28;20558;-83
2023/12/18 11:58:16;;;;;;;;;;;;;;;5.48;100.00;102558.31;5008219;28;19976;-81
2023/12/18 12:00:41;;;;;;;;;;;;;;;5.41;100.00;102557.13;4981855;28;19925;-81
2023/12/18 12:03:06;;;;;;;;;;;;;;;5.28;100.00;102551.88;5000369;28;19931;-83
2023/12/18 12:05:34;;;;;;;;;;;;;;;5.18;100.00;102545.59;5012288;28;19918;-81
2023/12/18 12:07:59;;;;;;;;;;;;;;;5.08;100.00;102540.09;5014941;28;19917;-81
2023/12/18 12:10:24;;;;;;;;;;;;;;;5.16;100.00;102543.88;5003959;28;20016;-83
2023/12/18 12:12:53;;;;;;;;;;;;;;;5.15;100.00;102539.50;4999194;28;19933;-82
2023/12/18 12:15:23;;;;;;;;;;;;;;;5.03;100.00;102539.59;4995986;28;19917;-82
2023/12/18 12:23:54;;;;;;;;;;;;;;;5.05;100.00;102540.34;5608557;23;20349;-83
2023/12/18 12:26:21;;;;;;;;;;;;;;;5.05;100.00;102529.66;5008983;28;19926;-83
2023/12/18 12:28:47;;;;;;;;;;;;;;;5.02;100.00;102525.41;4982465;28;20369;-83
2023/12/18 12:31:13;;;;;;;;;;;;;;;5.04;100.00;102528.78;5014000;28;19947;-82
2023/12/18 12:33:42;;;;;;;;;;;;;;;5.07;100.00;102517.03;4995231;28;19929;-83
2023/12/18 12:36:07;;;;;;;;;;;;;;;5.07;100.00;102511.72;5010998;28;19917;-83
2023/12/18 12:38:39;;;;;;;;;;;;;;;5.09;100.00;102501.75;5005863;28;20431;-83
2023/12/18 12:41:05;;;;;;;;;;;;;;;5.13;100.00;102505.88;5007975;28;19921;-82
2023/12/18 12:43:30;;;;;;;;;;;;;;;5.13;100.00;102506.75;5007849;28;19921;-83
2023/12/18 12:45:55;;;;;;;;;;;;;;;5.15;100.00;102511.94;5009025;28;19929;-83
2023/12/18 12:48:21;;;;;;;;;;;;;;;5.08;100.00;102508.06;4989117;28;19922;-83
2023/12/18 12:50:47;;;;;;;;;;;;;;;5.19;100.00;102505.41;4992017;28;21041;-82
2023/12/18 12:53:13;;;;;;;;;;;;;;;5.21;100.00;102492.78;5014253;28;19925;-83
2023/12/18 12:55:38;;;;;;;;;;;;;;;5.25;100.00;102498.72;5012614;28;19929;-82
2023/12/18 13:01:48;;;;;;;;;;;;;;;5.36;100.00;102489.88;5015995;23;19933;-82
2023/12/18 13:04:50;;;;;;;;;;;;;;;5.38;100.00;102493.28;4978217;28;20385;-82
2023/12/18 13:07:22;;;;;;;;;;;;;;;5.49;100.00;102490.56;5013651;28;19918;-82
2023/12/18 13:10:24;;;;;;;;;;;;;;;5.53;100.00;102484.03;5013829;28;19917;-82
2023/12/18 13:13:06;;;;;;;;;;;;;;;5.56;100.00;102485.63;5005714;28;20190;-82
2023/12/18 13:15:32;;;;;;;;;;;;;;;5.66;100.00;102477.69;5002097;28;20342;-81